Time;durP1;ratioP1;P1;durP2;ratioP2;P2;SDS_P1;SDS_P2;PMS_P1;PMS_P2;Temp;Humidity;BMP_temperature;BMP_pressure;BME280_temperature;BME280_humidity;BME280_pressure;Samples;Min_cycle;Max_cycle;Signal;HPM_P1;HPM_P2
2023/10/06 00:00:26;;;;;;;15.05;6.40;;;19.30;49.70;;;;;;5119801;27;45601;-75
2023/10/06 00:02:53;;;;;;;17.55;7.30;;;19.30;49.80;;;;;;5119829;27;45527;-78
2023/10/06 00:05:20;;;;;;;12.13;6.70;;;19.30;49.90;;;;;;5115035;27;45406;-78
2023/10/06 00:07:50;;;;;;;16.05;6.85;;;19.30;49.90;;;;;;5119103;27;46400;-77
2023/10/06 00:10:20;;;;;;;16.08;7.35;;;19.30;49.90;;;;;;5122703;27;45759;-78
2023/10/06 00:12:53;;;;;;;17.55;6.57;;;19.30;50.00;;;;;;5115147;27;45389;-77
2023/10/06 00:15:26;;;;;;;14.13;6.50;;;19.20;49.80;;;;;;5116152;27;45437;-77
2023/10/06 00:17:56;;;;;;;17.10;7.55;;;19.20;49.80;;;;;;5114761;27;45464;-77
2023/10/06 00:20:31;;;;;;;14.05;6.47;;;19.20;49.90;;;;;;5126343;27;45322;-77
2023/10/06 00:23:04;;;;;;;15.73;6.40;;;19.20;49.90;;;;;;5112224;27;45451;-76
2023/10/06 00:25:35;;;;;;;14.27;6.22;;;19.20;49.90;;;;;;5118875;27;45576;-76
2023/10/06 00:28:09;;;;;;;13.75;6.18;;;19.20;50.00;;;;;;5117195;27;45478;-77
2023/10/06 00:30:36;;;;;;;13.35;5.95;;;19.20;50.10;;;;;;5117254;27;44916;-74
2023/10/06 00:33:05;;;;;;;11.45;5.60;;;19.10;50.00;;;;;;5119734;27;45475;-77
2023/10/06 00:35:32;;;;;;;14.23;5.68;;;19.10;50.00;;;;;;5121629;27;45421;-78
2023/10/06 00:38:12;;;;;;;11.20;5.20;;;19.10;50.00;;;;;;5126429;27;45667;-78
2023/10/06 00:40:43;;;;;;;14.38;5.53;;;19.10;50.00;;;;;;5127875;27;45331;-77
2023/10/06 00:43:15;;;;;;;9.95;5.18;;;19.10;50.10;;;;;;5127918;27;45463;-79
2023/10/06 00:45:44;;;;;;;10.48;5.10;;;19.10;50.30;;;;;;5128088;27;45316;-79
2023/10/06 00:48:14;;;;;;;11.60;5.15;;;19.10;50.30;;;;;;5127787;27;46246;-79
2023/10/06 00:50:41;;;;;;;10.20;5.32;;;19.10;50.30;;;;;;5127609;27;45344;-79
2023/10/06 00:53:10;;;;;;;12.13;5.38;;;19.00;50.20;;;;;;5127962;27;45318;-78
2023/10/06 00:55:40;;;;;;;10.55;4.45;;;19.00;50.20;;;;;;5128191;27;45481;-79
2023/10/06 00:58:10;;;;;;;9.88;4.70;;;19.00;50.30;;;;;;5127719;27;46632;-79
2023/10/06 01:00:38;;;;;;;13.63;4.72;;;19.00;50.20;;;;;;5127912;27;45403;-79
2023/10/06 01:03:14;;;;;;;7.38;4.07;;;19.00;50.20;;;;;;5123747;27;45382;-79
2023/10/06 01:05:46;;;;;;;10.35;4.95;;;18.90;50.20;;;;;;5127615;27;45471;-79
2023/10/06 01:08:15;;;;;;;10.50;4.68;;;18.90;50.20;;;;;;5127424;27;47234;-79
2023/10/06 01:10:43;;;;;;;9.75;4.63;;;18.90;50.20;;;;;;5127480;27;45257;-78
2023/10/06 01:13:14;;;;;;;10.77;4.93;;;18.90;50.20;;;;;;5127592;27;45296;-79
2023/10/06 01:15:48;;;;;;;7.70;3.83;;;18.90;50.30;;;;;;5127927;27;45309;-78
2023/10/06 01:18:23;;;;;;;9.48;4.05;;;18.90;50.30;;;;;;5127408;27;45702;-78
2023/10/06 01:20:50;;;;;;;7.80;4.55;;;18.90;50.20;;;;;;5127366;27;45332;-79
2023/10/06 01:23:21;;;;;;;9.20;4.75;;;18.80;50.20;;;;;;5127403;27;45327;-77
2023/10/06 01:25:53;;;;;;;9.00;4.05;;;18.80;50.30;;;;;;5127452;27;45632;-77
2023/10/06 01:28:21;;;;;;;8.55;3.70;;;18.80;50.20;;;;;;5127161;27;46445;-79
2023/10/06 01:30:50;;;;;;;6.88;3.90;;;18.80;50.40;;;;;;5127048;27;45376;-78
2023/10/06 01:33:17;;;;;;;8.27;3.83;;;18.80;50.30;;;;;;5127120;27;45343;-78
2023/10/06 01:35:45;;;;;;;6.47;3.67;;;18.80;50.20;;;;;;5127500;27;45415;-78
2023/10/06 01:38:19;;;;;;;8.98;4.63;;;18.70;50.30;;;;;;5127863;27;46403;-78
2023/10/06 01:40:51;;;;;;;8.30;4.07;;;18.70;50.30;;;;;;5126862;27;45330;-77
2023/10/06 01:43:22;;;;;;;6.75;3.53;;;18.70;50.20;;;;;;5126617;27;45408;-78
2023/10/06 01:45:50;;;;;;;6.63;3.30;;;18.70;50.30;;;;;;5126428;27;45567;-79
2023/10/06 01:48:29;;;;;;;7.20;3.63;;;18.70;50.20;;;;;;5126860;27;46405;-77
2023/10/06 01:50:56;;;;;;;7.72;3.75;;;18.60;50.10;;;;;;5126820;27;45406;-78
2023/10/06 01:53:25;;;;;;;8.52;3.60;;;18.60;50.30;;;;;;5126906;27;45390;-78
2023/10/06 01:55:54;;;;;;;5.45;3.08;;;18.60;50.20;;;;;;5126943;27;45300;-79
2023/10/06 01:58:21;;;;;;;5.85;3.05;;;18.60;50.20;;;;;;5127019;27;46827;-79
2023/10/06 02:00:48;;;;;;;6.80;3.45;;;18.60;50.20;;;;;;5126885;27;45361;-78
2023/10/06 02:03:18;;;;;;;5.80;3.05;;;18.60;50.20;;;;;;5127137;27;45316;-78
2023/10/06 02:05:44;;;;;;;9.23;3.28;;;18.50;50.30;;;;;;5126681;27;45465;-79
2023/10/06 02:08:14;;;;;;;4.28;2.80;;;18.50;50.20;;;;;;5126553;27;46413;-78
2023/10/06 02:10:44;;;;;;;6.53;3.58;;;18.50;50.30;;;;;;5126418;27;45277;-78
2023/10/06 02:13:19;;;;;;;5.68;3.17;;;18.50;50.20;;;;;;5126788;27;45400;-78
2023/10/06 02:15:46;;;;;;;6.65;2.83;;;18.50;50.20;;;;;;5129918;27;45465;-79
2023/10/06 02:18:13;;;;;;;4.72;2.90;;;18.50;50.20;;;;;;5130307;27;45380;-78
2023/10/06 02:20:45;;;;;;;6.05;2.83;;;18.50;50.30;;;;;;5130211;27;45361;-78
2023/10/06 02:23:14;;;;;;;4.82;3.00;;;18.50;50.30;;;;;;5130389;27;45393;-79
2023/10/06 02:25:41;;;;;;;12.65;3.20;;;18.40;50.20;;;;;;5130375;27;45448;-77
2023/10/06 02:28:09;;;;;;;5.45;3.03;;;18.40;50.10;;;;;;5129943;27;46406;-79
2023/10/06 02:30:39;;;;;;;5.10;2.95;;;18.40;50.20;;;;;;5129636;27;45383;-79
2023/10/06 02:33:06;;;;;;;5.43;2.75;;;18.40;50.30;;;;;;5130309;27;45303;-78
2023/10/06 02:35:34;;;;;;;5.82;2.80;;;18.40;50.20;;;;;;5130460;27;45318;-78
2023/10/06 02:38:05;;;;;;;3.65;2.53;;;18.40;50.30;;;;;;5129790;27;45417;-78
2023/10/06 02:40:43;;;;;;;4.28;2.67;;;18.40;50.20;;;;;;5129654;27;45324;-76
2023/10/06 02:43:13;;;;;;;4.13;2.72;;;18.40;50.20;;;;;;5129895;27;45410;-77
2023/10/06 02:45:42;;;;;;;4.90;3.13;;;18.40;50.20;;;;;;5129467;27;45600;-77
2023/10/06 02:48:16;;;;;;;4.22;2.58;;;18.40;50.30;;;;;;5129475;27;46172;-77
2023/10/06 02:50:45;;;;;;;5.00;2.55;;;18.40;50.30;;;;;;5129983;27;45337;-77
2023/10/06 02:53:15;;;;;;;4.80;3.00;;;18.40;50.10;;;;;;5129894;27;45494;-76
2023/10/06 02:55:44;;;;;;;6.70;2.78;;;18.40;50.20;;;;;;5129802;27;45511;-76
2023/10/06 02:58:26;;;;;;;5.32;3.20;;;18.40;50.30;;;;;;5129716;27;47235;-76
2023/10/06 03:00:55;;;;;;;5.05;2.78;;;18.40;50.40;;;;;;5129849;27;45305;-78
2023/10/06 03:03:26;;;;;;;4.60;2.40;;;18.30;50.40;;;;;;5129588;27;45503;-78
2023/10/06 03:05:55;;;;;;;5.60;2.78;;;18.30;50.30;;;;;;5129713;27;45587;-77
2023/10/06 03:08:26;;;;;;;5.47;3.00;;;18.30;50.20;;;;;;5129535;27;45413;-76
2023/10/06 03:10:53;;;;;;;3.83;2.13;;;18.30;50.30;;;;;;5129421;27;45285;-77
2023/10/06 03:13:24;;;;;;;6.65;2.72;;;18.30;50.20;;;;;;5129642;27;45485;-76
2023/10/06 03:15:51;;;;;;;4.20;2.28;;;18.30;50.20;;;;;;5129687;27;45421;-77
2023/10/06 03:18:20;;;;;;;3.67;2.13;;;18.30;50.90;;;;;;5129321;27;46697;-77
2023/10/06 03:20:48;;;;;;;4.78;2.60;;;18.30;50.20;;;;;;5129231;27;45388;-77
2023/10/06 03:23:26;;;;;;;4.05;2.15;;;18.30;50.20;;;;;;5129234;27;45397;-76
2023/10/06 03:25:56;;;;;;;3.60;2.35;;;18.30;50.20;;;;;;5128400;27;45575;-77
2023/10/06 03:28:26;;;;;;;3.83;2.15;;;18.30;50.30;;;;;;5129180;27;46757;-77
2023/10/06 03:30:52;;;;;;;2.78;2.10;;;18.30;50.20;;;;;;5128615;27;45302;-77
2023/10/06 03:33:21;;;;;;;4.63;2.63;;;18.20;50.10;;;;;;5129370;27;45317;-76
2023/10/06 03:35:48;;;;;;;4.00;2.25;;;18.30;50.20;;;;;;5129207;27;45365;-77
2023/10/06 03:38:35;;;;;;;4.20;2.03;;;18.30;50.20;;;;;;5128848;27;46804;-77
2023/10/06 03:41:18;;;;;;;3.17;2.05;;;18.30;50.30;;;;;;5128803;27;45893;-77
2023/10/06 03:43:50;;;;;;;3.50;2.00;;;18.20;50.20;;;;;;5129402;27;45354;-76
2023/10/06 03:46:18;;;;;;;4.40;2.15;;;18.20;50.20;;;;;;5129043;27;45536;-77
2023/10/06 03:48:49;;;;;;;4.30;2.45;;;18.20;50.30;;;;;;5128707;27;45769;-77
2023/10/06 03:51:17;;;;;;;3.45;2.20;;;18.20;50.20;;;;;;5128732;27;45190;-76
2023/10/06 03:53:45;;;;;;;6.63;2.80;;;18.20;50.30;;;;;;5128674;27;45453;-77
2023/10/06 03:56:13;;;;;;;3.13;1.90;;;18.10;50.20;;;;;;5128766;27;45579;-78
2023/10/06 03:58:45;;;;;;;2.85;2.00;;;18.10;50.20;;;;;;5128635;27;46739;-78
2023/10/06 04:01:19;;;;;;;3.95;2.20;;;18.10;50.30;;;;;;5128522;27;45337;-78
2023/10/06 04:03:48;;;;;;;3.20;2.10;;;18.10;50.20;;;;;;5128687;27;45374;-77
2023/10/06 04:06:15;;;;;;;5.80;2.25;;;18.10;50.20;;;;;;5128053;27;45292;-77
2023/10/06 04:08:44;;;;;;;4.47;2.72;;;18.10;50.30;;;;;;5128372;27;45431;-78
2023/10/06 04:11:14;;;;;;;3.70;2.38;;;18.10;50.30;;;;;;5128173;27;45420;-79
2023/10/06 04:13:41;;;;;;;5.35;2.30;;;18.10;50.30;;;;;;5128419;27;45317;-77
2023/10/06 04:16:08;;;;;;;3.15;2.10;;;18.00;50.20;;;;;;5128466;27;45486;-77
2023/10/06 04:18:34;;;;;;;2.63;1.98;;;18.00;50.20;;;;;;5128512;27;46365;-78
2023/10/06 04:21:03;;;;;;;3.58;2.63;;;18.00;50.20;;;;;;5128210;27;45351;-78
2023/10/06 04:23:30;;;;;;;3.55;2.30;;;18.00;50.20;;;;;;5128379;27;45323;-79
2023/10/06 04:25:57;;;;;;;4.38;2.55;;;18.00;50.20;;;;;;5128272;27;45200;-77
2023/10/06 04:28:25;;;;;;;3.50;2.05;;;18.00;50.50;;;;;;5128085;27;46371;-78
2023/10/06 04:30:53;;;;;;;3.15;2.25;;;18.00;50.30;;;;;;5127813;27;45374;-78
2023/10/06 04:33:21;;;;;;;3.63;1.90;;;18.00;50.20;;;;;;5128032;27;45309;-78
2023/10/06 04:35:55;;;;;;;3.20;1.98;;;17.90;50.20;;;;;;5128342;27;45316;-78
2023/10/06 04:38:23;;;;;;;3.92;2.50;;;17.90;50.20;;;;;;5127523;27;45439;-78
2023/10/06 04:40:51;;;;;;;3.38;2.40;;;17.90;50.20;;;;;;5128335;27;45500;-78
2023/10/06 04:43:18;;;;;;;3.45;2.40;;;17.90;50.20;;;;;;5128158;27;45325;-79
2023/10/06 04:45:47;;;;;;;2.20;2.00;;;17.90;50.20;;;;;;5127873;27;45248;-78
2023/10/06 04:48:15;;;;;;;4.03;2.00;;;17.90;50.30;;;;;;5127939;27;46993;-77
2023/10/06 04:50:42;;;;;;;2.70;2.00;;;17.90;50.20;;;;;;5127598;27;45947;-77
2023/10/06 04:53:11;;;;;;;2.70;2.17;;;17.90;50.30;;;;;;5128012;27;45329;-78
2023/10/06 04:55:39;;;;;;;3.92;2.35;;;17.90;50.20;;;;;;5127353;27;45402;-77
2023/10/06 04:58:06;;;;;;;3.25;1.98;;;17.80;50.30;;;;;;5126896;27;45582;-78
2023/10/06 05:00:34;;;;;;;2.30;1.73;;;17.80;50.30;;;;;;5127963;27;45246;-79
2023/10/06 05:03:04;;;;;;;2.55;1.95;;;17.80;50.30;;;;;;5127535;27;45547;-77
2023/10/06 05:05:33;;;;;;;4.38;2.40;;;17.80;50.20;;;;;;5127816;27;45430;-78
2023/10/06 05:08:00;;;;;;;3.05;2.30;;;17.80;50.20;;;;;;5127970;27;46989;-78
2023/10/06 05:10:27;;;;;;;4.00;1.98;;;17.80;50.20;;;;;;5127339;27;45437;-78
2023/10/06 05:12:56;;;;;;;2.20;1.98;;;17.80;50.30;;;;;;5128067;27;45345;-78
2023/10/06 05:15:26;;;;;;;4.20;2.75;;;17.80;50.20;;;;;;5127539;27;45276;-78
2023/10/06 05:17:55;;;;;;;3.33;2.30;;;17.80;50.30;;;;;;5127219;27;45394;-79
2023/10/06 05:20:23;;;;;;;2.90;2.15;;;17.70;50.30;;;;;;5127311;27;45451;-78
2023/10/06 05:22:50;;;;;;;3.53;1.92;;;17.80;50.30;;;;;;5127349;27;45243;-77
2023/10/06 05:25:19;;;;;;;2.92;2.20;;;17.80;50.30;;;;;;5127344;27;45515;-78
2023/10/06 05:27:47;;;;;;;2.55;1.65;;;17.80;50.30;;;;;;5127327;27;45502;-78
2023/10/06 05:30:17;;;;;;;2.63;1.80;;;17.70;50.20;;;;;;5127128;27;45338;-77
2023/10/06 05:32:44;;;;;;;3.45;2.20;;;17.70;50.80;;;;;;5127374;27;45576;-77
2023/10/06 05:35:13;;;;;;;3.17;2.08;;;17.70;50.20;;;;;;5127320;27;45430;-77
2023/10/06 05:37:42;;;;;;;3.35;2.28;;;17.70;50.20;;;;;;5127197;27;45695;-77
2023/10/06 05:40:12;;;;;;;3.25;2.13;;;17.70;50.30;;;;;;5126958;27;45316;-78
2023/10/06 05:42:40;;;;;;;3.78;2.03;;;17.70;50.30;;;;;;5127212;27;45397;-77
2023/10/06 05:45:15;;;;;;;3.17;2.08;;;17.70;50.30;;;;;;5127366;27;45482;-78
2023/10/06 05:47:45;;;;;;;2.60;1.90;;;17.70;50.30;;;;;;5127299;27;47208;-76
2023/10/06 05:50:12;;;;;;;2.33;1.83;;;17.70;50.30;;;;;;5128850;27;45662;-76
2023/10/06 05:52:39;;;;;;;2.80;2.20;;;17.60;50.30;;;;;;5130640;27;45346;-78
2023/10/06 05:55:09;;;;;;;4.53;2.30;;;17.60;50.30;;;;;;5130373;27;45301;-77
2023/10/06 05:57:43;;;;;;;2.95;2.22;;;17.60;50.40;;;;;;5130511;27;45496;-77
2023/10/06 06:00:18;;;;;;;2.42;1.90;;;17.60;50.40;;;;;;5130570;27;45420;-78
2023/10/06 06:02:47;;;;;;;3.38;1.85;;;17.60;50.40;;;;;;5131240;27;45406;-77
2023/10/06 06:05:16;;;;;;;3.03;2.00;;;17.60;50.40;;;;;;5130559;27;45530;-77
2023/10/06 06:07:43;;;;;;;2.78;1.52;;;17.60;50.40;;;;;;5129985;27;46937;-77
2023/10/06 06:10:13;;;;;;;3.47;1.95;;;17.60;50.40;;;;;;5131123;27;45358;-77
2023/10/06 06:12:41;;;;;;;3.17;1.70;;;17.60;50.30;;;;;;5130958;27;45264;-76
2023/10/06 06:15:11;;;;;;;5.03;2.03;;;17.60;50.40;;;;;;5131042;27;45376;-76
2023/10/06 06:17:38;;;;;;;6.40;2.00;;;17.60;50.40;;;;;;5130747;27;46382;-78
2023/10/06 06:20:09;;;;;;;4.07;1.95;;;17.60;51.00;;;;;;5130580;27;45325;-77
2023/10/06 06:22:38;;;;;;;2.50;1.73;;;17.60;50.30;;;;;;5131203;27;44812;-78
2023/10/06 06:25:06;;;;;;;5.45;2.05;;;17.60;50.30;;;;;;5131061;27;45309;-79
2023/10/06 06:27:33;;;;;;;3.45;1.80;;;17.60;50.30;;;;;;5131211;27;45510;-77
2023/10/06 06:30:00;;;;;;;6.18;1.88;;;17.60;50.20;;;;;;5131289;27;45416;-79
2023/10/06 06:32:26;;;;;;;3.53;2.17;;;17.60;50.30;;;;;;5130846;27;45510;-79
2023/10/06 06:34:55;;;;;;;3.78;2.10;;;17.60;50.40;;;;;;5131118;27;45257;-80
2023/10/06 06:37:23;;;;;;;4.85;2.13;;;17.60;50.40;;;;;;5130809;27;46638;-78
2023/10/06 06:39:50;;;;;;;3.60;1.73;;;17.60;51.00;;;;;;5135569;27;44778;-77
2023/10/06 06:42:18;;;;;;;4.40;1.73;;;17.60;50.50;;;;;;5133960;27;45373;-79
2023/10/06 06:44:47;;;;;;;3.83;2.38;;;17.60;50.50;;;;;;5133977;27;45185;-79
2023/10/06 06:47:17;;;;;;;4.18;2.35;;;17.60;50.40;;;;;;5133171;27;46454;-79
2023/10/06 06:49:44;;;;;;;3.65;1.88;;;17.60;50.40;;;;;;5133283;27;45318;-79
2023/10/06 06:52:12;;;;;;;3.50;1.95;;;17.60;50.50;;;;;;5133755;27;45425;-78
2023/10/06 06:54:46;;;;;;;3.15;2.10;;;17.60;50.50;;;;;;5133792;27;45612;-76
2023/10/06 06:57:15;;;;;;;3.63;2.10;;;17.60;50.50;;;;;;5132905;27;45484;-78
2023/10/06 06:59:44;;;;;;;2.97;1.83;;;17.60;50.50;;;;;;5130650;27;45342;-78
2023/10/06 07:02:11;;;;;;;2.35;1.65;;;17.60;50.50;;;;;;5130552;27;45256;-78
2023/10/06 07:04:38;;;;;;;3.78;1.60;;;17.60;50.50;;;;;;5130734;27;45525;-79
2023/10/06 07:07:05;;;;;;;3.30;1.88;;;17.60;50.50;;;;;;5130476;27;45430;-79
2023/10/06 07:09:32;;;;;;;4.10;2.03;;;17.60;50.50;;;;;;5130462;27;44751;-79
2023/10/06 07:12:00;;;;;;;3.22;2.08;;;17.60;50.40;;;;;;5130323;27;45275;-78
2023/10/06 07:14:28;;;;;;;4.07;2.08;;;17.60;51.00;;;;;;5130674;27;45221;-78
2023/10/06 07:17:00;;;;;;;3.60;2.08;;;17.60;50.40;;;;;;5132787;27;46398;-72
2023/10/06 07:19:30;;;;;;;4.10;2.20;;;17.60;50.50;;;;;;5131339;27;45332;-72
2023/10/06 07:21:58;;;;;;;2.97;2.00;;;17.60;50.50;;;;;;5131485;27;45223;-72
2023/10/06 07:24:28;;;;;;;2.30;1.55;;;17.60;50.50;;;;;;5131300;27;45328;-72
2023/10/06 07:26:56;;;;;;;3.45;2.03;;;17.60;50.50;;;;;;5127769;27;45433;-72
2023/10/06 07:29:34;;;;;;;3.35;2.10;;;17.60;50.40;;;;;;5130244;27;45433;-72
2023/10/06 07:32:03;;;;;;;2.72;2.15;;;17.60;50.50;;;;;;5130105;27;45201;-72
2023/10/06 07:34:31;;;;;;;5.65;2.72;;;17.70;50.40;;;;;;5130717;27;45545;-72
2023/10/06 07:37:27;;;;;;;2.58;2.20;;;17.70;50.50;;;;;;5130327;27;45320;-73
2023/10/06 07:40:12;;;;;;;4.60;2.72;;;17.60;50.60;;;;;;5129638;27;45094;-73
2023/10/06 07:42:41;;;;;;;4.63;2.40;;;17.70;50.50;;;;;;5130320;27;45137;-72
2023/10/06 07:45:10;;;;;;;3.25;2.50;;;17.60;50.60;;;;;;5129396;27;45353;-72
2023/10/06 07:47:37;;;;;;;3.65;2.28;;;17.70;50.70;;;;;;5128711;27;45380;-71
2023/10/06 07:50:05;;;;;;;4.50;2.22;;;17.70;50.60;;;;;;5129340;27;45324;-72
2023/10/06 07:52:32;;;;;;;4.53;2.30;;;17.70;50.60;;;;;;5129311;27;45261;-70
2023/10/06 07:54:59;;;;;;;3.30;1.92;;;17.70;50.60;;;;;;5129164;27;45423;-71
2023/10/06 07:57:31;;;;;;;3.70;2.17;;;17.70;50.60;;;;;;5128910;27;45542;-70
2023/10/06 07:59:59;;;;;;;2.83;1.77;;;17.70;50.60;;;;;;5128859;27;45340;-73
2023/10/06 08:02:29;;;;;;;2.95;1.77;;;17.70;50.70;;;;;;5129067;27;45428;-71
2023/10/06 08:04:56;;;;;;;3.75;2.15;;;17.80;50.60;;;;;;5128746;27;45277;-70
2023/10/06 08:07:26;;;;;;;2.38;1.90;;;17.80;50.70;;;;;;5128618;27;46667;-71
2023/10/06 08:09:53;;;;;;;3.33;1.75;;;17.80;50.60;;;;;;5128772;27;45585;-71
2023/10/06 08:12:20;;;;;;;3.88;2.53;;;17.80;50.50;;;;;;5128160;27;45328;-70
2023/10/06 08:14:47;;;;;;;3.03;2.05;;;17.90;50.50;;;;;;5128669;27;45363;-72
2023/10/06 08:17:14;;;;;;;4.38;2.03;;;17.90;50.60;;;;;;5128542;27;45397;-71
2023/10/06 08:19:42;;;;;;;4.15;2.60;;;17.90;50.60;;;;;;5128654;27;45302;-70
2023/10/06 08:22:09;;;;;;;5.50;2.25;;;17.90;50.60;;;;;;5120656;27;45567;-71
2023/10/06 08:24:36;;;;;;;6.45;2.63;;;17.90;50.50;;;;;;5115614;27;45330;-72
2023/10/06 08:27:06;;;;;;;3.53;2.05;;;17.90;50.50;;;;;;5106392;27;45447;-71
2023/10/06 08:29:33;;;;;;;4.10;2.25;;;17.90;50.80;;;;;;5118494;27;45423;-72
2023/10/06 08:32:02;;;;;;;4.20;2.10;;;18.00;50.90;;;;;;5127514;27;45322;-71
2023/10/06 08:34:30;;;;;;;2.97;2.42;;;18.00;50.70;;;;;;5110849;27;45328;-71
2023/10/06 08:37:00;;;;;;;2.83;2.15;;;18.00;50.60;;;;;;5121482;27;45529;-71
2023/10/06 08:39:38;;;;;;;3.92;2.50;;;18.00;50.70;;;;;;5118163;27;45325;-71
2023/10/06 08:42:06;;;;;;;2.17;1.83;;;18.00;50.70;;;;;;5111810;27;44772;-72
2023/10/06 08:44:33;;;;;;;4.55;2.40;;;18.00;50.70;;;;;;5121726;27;45676;-71
2023/10/06 08:47:01;;;;;;;2.90;2.50;;;18.00;50.80;;;;;;5113604;27;46777;-71
2023/10/06 08:49:29;;;;;;;2.97;2.40;;;18.00;50.80;;;;;;5116793;27;45437;-72
2023/10/06 08:51:58;;;;;;;2.78;2.20;;;18.00;50.80;;;;;;5122429;27;45415;-72
2023/10/06 08:54:25;;;;;;;5.63;2.50;;;18.00;50.80;;;;;;5110590;27;45367;-72
2023/10/06 08:56:52;;;;;;;3.30;2.22;;;18.00;50.80;;;;;;5121991;27;45362;-71
2023/10/06 08:59:24;;;;;;;2.85;1.80;;;18.10;50.80;;;;;;5116357;27;45721;-71
2023/10/06 09:01:50;;;;;;;4.28;2.08;;;18.10;50.70;;;;;;5113702;27;45380;-71
2023/10/06 09:04:19;;;;;;;6.15;2.72;;;18.20;51.20;;;;;;5123805;27;45306;-71
2023/10/06 09:07:13;;;;;;;3.15;1.98;;;18.20;50.50;;;;;;5111266;27;46455;-72
2023/10/06 09:09:40;;;;;;;5.32;2.28;;;18.20;50.50;;;;;;5111603;27;45719;-70
2023/10/06 09:12:09;;;;;;;4.82;2.40;;;18.30;50.60;;;;;;5123618;27;45420;-71
2023/10/06 09:14:42;;;;;;;4.13;2.30;;;18.30;50.60;;;;;;5110297;27;45623;-70
2023/10/06 09:17:11;;;;;;;2.92;2.13;;;18.30;50.60;;;;;;5118862;27;46536;-71
2023/10/06 09:19:49;;;;;;;3.83;2.25;;;18.30;51.20;;;;;;5119107;27;45317;-70
2023/10/06 09:22:18;;;;;;;7.00;2.28;;;18.30;51.30;;;;;;5110221;27;45371;-71
2023/10/06 09:24:59;;;;;;;4.20;2.33;;;18.40;52.20;;;;;;5123826;27;45391;-71
2023/10/06 09:27:26;;;;;;;5.40;2.45;;;18.40;52.30;;;;;;5109497;27;45749;-72
2023/10/06 09:30:00;;;;;;;5.18;2.63;;;18.40;52.80;;;;;;5110005;27;45877;-70
2023/10/06 09:32:27;;;;;;;8.85;2.15;;;18.40;52.50;;;;;;5110732;27;45334;-71
2023/10/06 09:34:57;;;;;;;4.70;2.30;;;18.40;52.80;;;;;;5110536;27;45553;-70
2023/10/06 09:37:25;;;;;;;8.27;2.50;;;18.50;52.30;;;;;;5110502;27;46453;-67
2023/10/06 09:40:05;;;;;;;6.78;2.60;;;18.50;52.70;;;;;;5109900;27;46291;-70
2023/10/06 09:42:33;;;;;;;5.90;2.25;;;18.50;52.80;;;;;;5110120;27;45315;-69
2023/10/06 09:45:07;;;;;;;6.57;2.30;;;18.60;52.70;;;;;;5109551;27;45525;-67
2023/10/06 09:47:35;;;;;;;6.45;2.38;;;18.60;52.80;;;;;;5109599;27;45599;-68
2023/10/06 09:50:02;;;;;;;4.50;2.17;;;18.60;52.60;;;;;;5110265;27;45407;-70
2023/10/06 09:52:31;;;;;;;5.30;2.83;;;18.60;52.80;;;;;;5113505;27;45655;-71
2023/10/06 09:54:58;;;;;;;5.55;2.20;;;18.70;52.50;;;;;;5124377;27;45223;-70
2023/10/06 09:57:25;;;;;;;4.80;2.53;;;18.80;52.50;;;;;;5130009;27;46881;-70
2023/10/06 09:59:55;;;;;;;3.60;2.30;;;18.80;52.40;;;;;;5114096;27;45374;-71
2023/10/06 10:02:23;;;;;;;10.38;2.35;;;18.90;52.40;;;;;;5125343;27;45274;-72
2023/10/06 10:04:50;;;;;;;3.60;2.75;;;18.90;52.60;;;;;;5119776;27;45359;-71
2023/10/06 10:07:17;;;;;;;5.90;2.70;;;19.00;52.50;;;;;;5117268;27;45474;-70
2023/10/06 10:09:45;;;;;;;9.88;2.85;;;19.10;52.60;;;;;;5127068;27;45381;-72
2023/10/06 10:12:18;;;;;;;9.60;2.67;;;19.10;52.40;;;;;;5114111;27;45337;-70
2023/10/06 10:14:52;;;;;;;6.10;2.90;;;19.10;52.50;;;;;;5122291;27;45227;-71
2023/10/06 10:17:24;;;;;;;6.57;2.05;;;19.20;52.20;;;;;;5120670;27;45379;-72
2023/10/06 10:19:53;;;;;;;6.35;2.40;;;19.30;52.70;;;;;;5113730;27;45386;-73
2023/10/06 10:22:21;;;;;;;4.28;2.38;;;19.40;51.80;;;;;;5125685;27;45208;-69
2023/10/06 10:24:49;;;;;;;7.35;3.17;;;19.40;52.40;;;;;;5118298;27;45308;-71
2023/10/06 10:27:20;;;;;;;6.07;2.67;;;19.50;51.80;;;;;;5117158;27;46344;-72
2023/10/06 10:29:47;;;;;;;8.68;2.72;;;19.50;51.80;;;;;;5126160;27;45254;-71
2023/10/06 10:32:14;;;;;;;4.10;2.53;;;19.60;51.70;;;;;;5114322;27;45211;-73
2023/10/06 10:35:12;;;;;;;5.07;2.50;;;19.80;51.80;;;;;;5130235;27;45313;-70
2023/10/06 10:37:58;;;;;;;4.35;2.40;;;19.80;51.50;;;;;;5112978;27;45789;-69
2023/10/06 10:40:27;;;;;;;5.45;2.17;;;19.80;51.50;;;;;;5115358;27;45236;-69
2023/10/06 10:43:01;;;;;;;13.98;2.50;;;19.90;51.50;;;;;;5120132;27;45276;-70
2023/10/06 10:45:30;;;;;;;13.85;2.97;;;19.90;51.50;;;;;;5123615;27;45337;-68
2023/10/06 10:47:58;;;;;;;14.85;3.03;;;20.00;51.40;;;;;;5127250;27;45517;-70
2023/10/06 10:50:28;;;;;;;9.55;2.55;;;20.00;51.20;;;;;;5114570;27;45331;-70
2023/10/06 10:52:55;;;;;;;6.70;2.60;;;20.10;51.10;;;;;;5119803;27;45383;-71
2023/10/06 10:55:26;;;;;;;2.90;2.00;;;20.20;50.70;;;;;;5123379;27;45596;-71
2023/10/06 10:57:53;;;;;;;8.93;2.42;;;20.30;50.50;;;;;;5119814;27;46290;-70
2023/10/06 11:00:20;;;;;;;8.00;3.00;;;20.50;50.20;;;;;;5123835;27;45411;-72
2023/10/06 11:03:02;;;;;;;6.40;2.15;;;20.50;49.80;;;;;;5117692;27;45535;-71
2023/10/06 11:05:29;;;;;;;4.18;2.25;;;20.60;49.90;;;;;;5129301;27;45337;-73
2023/10/06 11:07:56;;;;;;;3.58;2.30;;;20.60;49.80;;;;;;5111784;27;45530;-74
2023/10/06 11:10:24;;;;;;;6.32;2.70;;;20.70;49.70;;;;;;5123708;27;45373;-75
2023/10/06 11:12:54;;;;;;;7.20;2.30;;;20.80;49.70;;;;;;5118278;27;45381;-74
2023/10/06 11:15:27;;;;;;;4.68;2.17;;;20.80;49.60;;;;;;5114893;27;45512;-73
2023/10/06 11:17:58;;;;;;;7.47;2.15;;;20.90;49.30;;;;;;5125184;27;46761;-74
2023/10/06 11:20:27;;;;;;;3.90;2.22;;;20.90;49.40;;;;;;5114406;27;45260;-73
2023/10/06 11:22:55;;;;;;;6.07;2.00;;;21.00;49.50;;;;;;5119424;27;45307;-75
2023/10/06 11:25:27;;;;;;;5.75;2.40;;;21.00;49.30;;;;;;5122391;27;45351;-74
2023/10/06 11:28:00;;;;;;;4.65;1.92;;;21.10;49.00;;;;;;5111365;27;46294;-72
2023/10/06 11:30:28;;;;;;;4.72;2.10;;;21.20;48.80;;;;;;5122190;27;45350;-73
2023/10/06 11:32:56;;;;;;;8.80;2.50;;;21.20;48.70;;;;;;5118342;27;45315;-73
2023/10/06 11:35:24;;;;;;;7.38;2.10;;;21.30;48.70;;;;;;5114593;27;45530;-73
2023/10/06 11:37:51;;;;;;;8.60;2.30;;;21.40;48.30;;;;;;5124728;27;47560;-73
2023/10/06 11:40:18;;;;;;;6.50;2.10;;;21.50;48.20;;;;;;5112738;27;45440;-73
2023/10/06 11:42:44;;;;;;;3.17;1.92;;;21.50;48.10;;;;;;5129515;27;45317;-74
2023/10/06 11:45:27;;;;;;;8.90;2.78;;;21.50;48.00;;;;;;5129235;27;45385;-73
2023/10/06 11:47:54;;;;;;;3.55;1.67;;;21.60;48.00;;;;;;5126682;27;46646;-73
2023/10/06 11:50:23;;;;;;;5.05;2.65;;;21.70;47.90;;;;;;5128339;27;45397;-73
2023/10/06 11:52:50;;;;;;;5.72;2.03;;;21.70;47.80;;;;;;5108321;27;45442;-73
2023/10/06 11:55:31;;;;;;;5.40;2.15;;;21.80;47.50;;;;;;5119164;27;45253;-73
2023/10/06 11:58:00;;;;;;;6.32;2.28;;;21.90;47.30;;;;;;5122495;27;46464;-72
2023/10/06 12:00:40;;;;;;;9.82;2.55;;;21.90;47.50;;;;;;5126466;27;45428;-73
2023/10/06 12:03:08;;;;;;;4.40;2.10;;;22.00;47.20;;;;;;5112391;27;45479;-72
2023/10/06 12:05:35;;;;;;;2.38;1.77;;;22.00;47.50;;;;;;5124672;27;45387;-73
2023/10/06 12:08:03;;;;;;;6.05;2.33;;;22.00;47.40;;;;;;5127204;27;46273;-73
2023/10/06 12:10:32;;;;;;;4.07;2.05;;;22.00;47.20;;;;;;5128607;27;45395;-75
2023/10/06 12:12:59;;;;;;;5.53;1.80;;;22.10;47.10;;;;;;5128526;27;45340;-73
2023/10/06 12:15:29;;;;;;;4.82;2.38;;;22.20;46.80;;;;;;5128608;27;45418;-73
2023/10/06 12:17:57;;;;;;;3.58;1.98;;;22.20;47.40;;;;;;5128374;27;45357;-73
2023/10/06 12:20:25;;;;;;;3.45;1.75;;;22.30;46.80;;;;;;5127382;27;45503;-72
2023/10/06 12:22:52;;;;;;;3.58;1.85;;;22.30;47.10;;;;;;5124961;27;45413;-72
2023/10/06 12:25:22;;;;;;;2.67;1.90;;;22.30;46.90;;;;;;5121063;27;45447;-72
2023/10/06 12:27:49;;;;;;;6.07;2.20;;;22.20;47.00;;;;;;5127462;27;46672;-73
2023/10/06 12:30:17;;;;;;;7.18;2.10;;;22.20;46.70;;;;;;5127767;27;45541;-77
2023/10/06 12:32:45;;;;;;;9.68;2.35;;;22.20;46.70;;;;;;5127930;27;45415;-77
2023/10/06 12:35:18;;;;;;;5.60;2.30;;;22.20;46.80;;;;;;5129780;27;45572;-77
2023/10/06 12:37:46;;;;;;;5.10;2.10;;;22.20;46.90;;;;;;5128196;27;46840;-76
2023/10/06 12:40:14;;;;;;;3.88;2.25;;;22.30;46.70;;;;;;5129222;27;45404;-76
2023/10/06 12:42:42;;;;;;;12.63;1.90;;;22.40;46.40;;;;;;5129166;27;45258;-76
2023/10/06 12:45:12;;;;;;;3.17;1.80;;;22.50;46.20;;;;;;5128457;27;45425;-76
2023/10/06 12:47:39;;;;;;;3.63;1.77;;;22.60;45.90;;;;;;5127727;27;46163;-77
2023/10/06 12:50:08;;;;;;;3.25;2.03;;;22.70;46.00;;;;;;5128500;27;45356;-75
2023/10/06 12:52:36;;;;;;;4.32;2.47;;;22.70;45.90;;;;;;5127790;27;45257;-70
2023/10/06 12:55:05;;;;;;;4.20;2.25;;;22.70;45.80;;;;;;5125185;27;45576;-72
2023/10/06 12:57:34;;;;;;;2.50;1.90;;;22.90;45.60;;;;;;5113211;27;46668;-70